Ana Sayfa
METAR-TAF:

METAR-TAF

Havaalanları :

Bağdat Uluslararası Havaalanı

Bağdat, Irak

Enlem: 33-15-45N, Boylam: 44-14-04E, yükseklik: 35 m

Güncel hava durumu gözlemi

Rapor saat 20:00 UTC de 24 dakika önce yapıldı.
Sakin rüzgar
Sıcaklık 31°C
Nem 31%
Basınç 1006 hPa
Görüş mesafesi 10 km veya daha fazla
1500 m altında bulut yok ve kümülonimbus yok

METAR: ORBI 232000Z 00000KT CAVOK 31/12 Q1006 NOSIG

Saat: 23:24 (20:24 UTC)

Tahmin

Rapor saat 16:00 UTC de 4 saat ve 24 dakika önce yapıldı.
Ayın 23'si saat 18 UTC'den ayın 24'si saat 18 UTC'ye kadar geçerli Tahmin
Rüzgar doğu/kuzeydoğudan 7 kt
Görüş mesafesi: 8000 m

TAF: ORBI 231600Z 2318/2418 07007KT 8000 NSC

4.000'den fazla havaalanı için hava durumu gözlemleri ve tahminleri (METAR ve TAF raporları).

Kullanılabilir istasyonlar harita üzerinde sarı ve kırmızı noktalarla gösterilir.

İstasyonun adını görmek için fareyi noktanın üzerinde gezdirin.

Sonrasında hava gözlem ve tahminlerini görmek için tıklayın.

Haritayı değiştirmek için: yaklaştırmak için siyah artı işaretli yeşil düğmeye ve uzaklaştırmak için de eksi işaretli düğmeye hızla tıklayın; bitişik haritalar için yeşil okları kullanın.


METAR-TAF: